Time;durP1;ratioP1;P1;durP2;ratioP2;P2;SDS_P1;SDS_P2;PMS_P1;PMS_P2;Temp;Humidity;BMP_temperature;BMP_pressure;BME280_temperature;BME280_humidity;BME280_pressure;Samples;Min_cycle;Max_cycle;Signal;HPM_P1;HPM_P2
2023/11/26 08:41:29;;;;;;;15.82;7.82;;;;;;;0.77;100.00;96629.72;2099859;27;20684;-63
2023/11/26 08:45:32;;;;;;;22.45;8.70;;;;;;;1.19;100.00;96632.84;2091179;27;20581;-61
2023/11/26 08:46:35;;;;;;;22.70;9.00;;;;;;;1.30;100.00;96633.63;2087267;28;20192;-61
2023/11/26 08:49:10;;;;;;;16.13;6.82;;;;;;;1.60;100.00;96633.38;2083500;28;20577;-64
2023/11/26 08:50:11;;;;;;;24.98;7.75;;;;;;;1.76;100.00;96640.06;2076645;28;20221;-64
2023/11/26 08:51:14;;;;;;;14.35;6.85;;;;;;;1.91;100.00;96633.91;2070718;28;20644;-64
2023/11/26 08:52:16;;;;;;;15.50;6.55;;;;;;;2.22;100.00;96638.75;2074887;28;20206;-64
2023/11/26 08:53:18;;;;;;;15.98;6.75;;;;;;;2.46;100.00;96644.47;2088727;28;20204;-64
2023/11/26 08:54:20;;;;;;;20.77;7.03;;;;;;;3.06;99.86;96638.50;2078680;28;20505;-64
2023/11/26 08:55:22;;;;;;;10.63;6.20;;;;;;;3.75;99.76;96640.81;2073020;28;20254;-63
2023/11/26 08:56:24;;;;;;;13.35;6.50;;;;;;;4.43;97.02;96639.53;2074845;28;20196;-63
2023/11/26 08:57:26;;;;;;;11.55;5.43;;;;;;;4.60;92.64;96633.16;2074009;28;20913;-63
2023/11/26 08:58:28;;;;;;;7.65;4.28;;;;;;;4.37;91.73;96637.09;2065606;28;20203;-64
2023/11/26 08:59:29;;;;;;;10.98;4.93;;;;;;;3.83;90.80;96633.78;2071323;28;20204;-64
2023/11/26 09:00:31;;;;;;;9.57;5.30;;;;;;;3.67;92.64;96635.78;2083951;28;20235;-64
2023/11/26 09:01:34;;;;;;;10.88;5.95;;;;;;;3.35;92.64;96623.41;2088568;28;20232;-64
2023/11/26 09:02:40;;;;;;;10.93;4.75;;;;;;;3.47;93.00;96637.88;2071783;28;20255;-65
2023/11/26 09:03:41;;;;;;;11.90;5.15;;;;;;;3.49;92.33;96638.69;2067107;28;20194;-64
2023/11/26 09:04:43;;;;;;;14.43;4.68;;;;;;;3.62;92.64;96639.31;2068837;28;20204;-64
2023/11/26 09:05:45;;;;;;;10.15;5.13;;;;;;;3.71;91.40;96623.69;2068899;28;20228;-64
2023/11/26 09:06:47;;;;;;;11.50;5.63;;;;;;;3.86;91.33;96635.44;2086814;28;20534;-64
2023/11/26 09:07:49;;;;;;;16.05;5.10;;;;;;;3.90;92.43;96627.63;2089007;28;20200;-64
2023/11/26 09:08:50;;;;;;;11.07;4.95;;;;;;;3.83;91.67;96623.44;2074478;28;20777;-64
2023/11/26 09:09:52;;;;;;;15.10;6.30;;;;;;;3.81;91.80;96630.38;2073588;28;20210;-64
2023/11/26 09:10:56;;;;;;;8.38;4.25;;;;;;;3.98;91.35;96630.06;2072904;28;20283;-65
2023/11/26 09:11:58;;;;;;;12.77;4.95;;;;;;;4.11;91.51;96637.59;2071743;28;20222;-65
2023/11/26 09:13:00;;;;;;;6.35;3.25;;;;;;;3.95;89.97;96632.72;2069824;28;20197;-65
2023/11/26 09:14:01;;;;;;;9.80;3.17;;;;;;;3.79;89.85;96629.56;2072029;28;20229;-65
2023/11/26 09:15:10;;;;;;;9.57;4.13;;;;;;;3.66;90.86;96634.09;2071931;28;20251;-64
2023/11/26 09:16:12;;;;;;;7.20;3.70;;;;;;;3.45;91.91;96624.13;2067770;28;20226;-64
2023/11/26 09:17:14;;;;;;;6.85;3.42;;;;;;;3.29;93.14;96639.88;2066557;28;20209;-64
2023/11/26 09:18:15;;;;;;;17.23;4.85;;;;;;;3.02;93.49;96634.25;2068498;28;20201;-65
2023/11/26 09:19:17;;;;;;;11.65;4.10;;;;;;;2.96;94.20;96643.78;2074825;28;20560;-64
2023/11/26 09:20:18;;;;;;;12.13;4.28;;;;;;;2.83;94.83;96635.38;2069391;28;20324;-64
2023/11/26 09:21:23;;;;;;;17.02;4.63;;;;;;;2.79;94.84;96644.88;2068192;28;20572;-64
2023/11/26 09:22:24;;;;;;;12.63;3.97;;;;;;;2.84;96.72;96648.25;2065866;28;20206;-68
2023/11/26 09:23:28;;;;;;;15.23;4.28;;;;;;;2.81;96.49;96650.88;2066784;28;20479;-64
2023/11/26 09:24:31;;;;;;;14.20;3.70;;;;;;;2.76;96.45;96650.94;2082710;28;20224;-64
2023/11/26 09:25:32;;;;;;;16.08;4.40;;;;;;;2.67;97.06;96648.50;2087805;28;20233;-64
2023/11/26 09:26:34;;;;;;;10.77;4.57;;;;;;;2.60;97.06;96649.44;2072139;28;20201;-64
2023/11/26 09:27:36;;;;;;;9.85;3.90;;;;;;;2.67;97.58;96650.22;2071905;28;20205;-64
2023/11/26 09:28:37;;;;;;;16.88;4.03;;;;;;;2.62;98.28;96658.03;2071543;28;20210;-63
2023/11/26 09:29:39;;;;;;;12.80;3.53;;;;;;;2.45;99.42;96638.47;2069608;28;20205;-64
2023/11/26 09:30:40;;;;;;;9.13;3.55;;;;;;;2.61;99.82;96652.00;2068437;28;20232;-64
2023/11/26 09:31:42;;;;;;;12.93;3.38;;;;;;;2.46;98.22;96659.94;2069396;28;20234;-64
2023/11/26 09:47:48;;;;;;;6.75;4.03;;;;;;;2.06;100.00;96650.94;2084637;28;20575;-65
2023/11/26 09:51:37;;;;;;;13.50;4.15;;;;;;;2.16;100.00;96651.69;2098835;27;20558;-66
2023/11/26 09:55:09;;;;;;;11.68;3.28;;;;;;;2.15;100.00;96644.84;2083999;28;21585;-67
2023/11/26 09:56:11;;;;;;;7.05;3.38;;;;;;;2.22;100.00;96654.22;2086082;28;20266;-68
2023/11/26 09:57:13;;;;;;;14.85;4.22;;;;;;;2.30;100.00;96651.53;2086041;28;20210;-68
2023/11/26 10:00:23;;;;;;;9.27;4.75;;;;;;;2.42;100.00;96653.09;2102683;27;20564;-67
2023/11/26 10:01:25;;;;;;;10.85;4.47;;;;;;;2.54;99.63;96654.66;2102550;28;20777;-67
2023/11/26 10:02:26;;;;;;;12.25;4.20;;;;;;;2.44;97.67;96647.06;2096611;28;20195;-67
2023/11/26 10:03:28;;;;;;;9.68;3.97;;;;;;;2.46;97.88;96647.03;2098051;28;20196;-68
2023/11/26 10:04:51;;;;;;;17.30;4.15;;;;;;;2.64;97.71;96645.09;2095110;28;20207;-68
2023/11/26 10:06:08;;;;;;;7.28;2.97;;;;;;;2.75;97.17;96644.06;2074565;28;20326;-68
2023/11/26 10:07:10;;;;;;;8.10;4.00;;;;;;;2.84;97.08;96632.78;2084401;28;20203;-68
2023/11/26 10:08:28;;;;;;;7.03;3.13;;;;;;;3.00;96.46;96643.75;2090146;28;20233;-68
2023/11/26 10:09:30;;;;;;;5.60;3.08;;;;;;;3.20;95.87;96647.72;2094926;28;20211;-68
2023/11/26 10:10:31;;;;;;;11.18;3.83;;;;;;;3.29;95.33;96631.25;2086883;28;20234;-68
2023/11/26 10:11:33;;;;;;;12.85;3.50;;;;;;;3.51;93.89;96642.09;2086838;28;20220;-68
2023/11/26 10:12:53;;;;;;;11.20;3.90;;;;;;;3.62;92.32;96636.75;2087179;28;20196;-68
2023/11/26 10:13:55;;;;;;;9.27;3.05;;;;;;;3.82;91.50;96638.97;2088704;28;20188;-67
2023/11/26 10:15:06;;;;;;;22.92;12.55;;;;;;;3.92;91.29;96630.16;2085525;28;20253;-66
2023/11/26 10:16:08;;;;;;;24.52;12.40;;;;;;;4.22;91.20;96636.50;2088668;28;20249;-67
2023/11/26 10:17:11;;;;;;;23.95;9.70;;;;;;;4.34;90.27;96611.28;2090959;28;20200;-67
2023/11/26 10:18:15;;;;;;;21.55;10.65;;;;;;;5.05;88.49;96625.25;2090506;28;20228;-66
2023/11/26 10:19:28;;;;;;;8.18;3.00;;;;;;;6.86;80.15;96620.53;2091715;28;20510;-67
2023/11/26 10:20:34;;;;;;;9.07;3.35;;;;;;;7.16;78.63;96617.88;2090014;28;20228;-67
2023/11/26 10:21:52;;;;;;;9.95;3.08;;;;;;;6.58;78.06;96623.94;2090709;28;20264;-67
2023/11/26 10:22:53;;;;;;;7.22;2.05;;;;;;;6.87;76.91;96622.25;2089845;28;20204;-67
2023/11/26 10:23:55;;;;;;;4.70;2.05;;;;;;;6.95;76.33;96616.81;2086621;28;20207;-67
2023/11/26 10:25:10;;;;;;;5.10;1.95;;;;;;;6.96;74.60;96624.53;2084110;28;20286;-67
2023/11/26 10:26:23;;;;;;;9.93;1.95;;;;;;;6.78;74.23;96612.97;2090803;28;20203;-67
2023/11/26 10:27:25;;;;;;;6.97;2.42;;;;;;;6.17;77.00;96615.56;2089918;28;20215;-67
2023/11/26 10:28:26;;;;;;;4.07;2.10;;;;;;;5.74;77.78;96620.16;2089227;28;20204;-67
2023/11/26 10:29:30;;;;;;;10.07;2.63;;;;;;;5.12;79.73;96613.91;2089773;28;20200;-67
2023/11/26 10:30:33;;;;;;;4.63;1.70;;;;;;;4.82;81.88;96618.03;2086639;28;20784;-65
2023/11/26 10:32:04;;;;;;;5.15;2.45;;;;;;;4.79;83.99;96612.94;2087495;28;20269;-63
2023/11/26 10:33:07;;;;;;;7.07;2.58;;;;;;;4.53;84.50;96604.00;2085348;28;20196;-64
2023/11/26 10:34:13;;;;;;;11.43;2.97;;;;;;;4.49;84.63;96610.94;2091331;28;20669;-64
2023/11/26 10:35:15;;;;;;;6.00;2.28;;;;;;;4.29;85.18;96601.06;2090629;28;20247;-64
2023/11/26 10:36:30;;;;;;;5.13;2.67;;;;;;;4.12;87.13;96600.53;2088349;28;20565;-64
2023/11/26 10:37:32;;;;;;;6.15;2.33;;;;;;;3.95;85.68;96616.34;2086608;28;20671;-64
2023/11/26 10:38:34;;;;;;;4.68;2.33;;;;;;;3.98;85.83;96606.81;2086879;28;20200;-64
2023/11/26 10:39:36;;;;;;;5.60;2.00;;;;;;;4.14;86.12;96607.38;2089722;28;20200;-63
2023/11/26 10:40:37;;;;;;;6.00;2.30;;;;;;;4.09;84.99;96607.44;2089704;28;20251;-64
2023/11/26 10:41:39;;;;;;;5.82;2.28;;;;;;;4.11;85.90;96598.81;2089900;28;20235;-64
2023/11/26 10:42:42;;;;;;;12.55;3.20;;;;;;;4.15;85.38;96605.63;2090520;28;20271;-64
2023/11/26 10:43:44;;;;;;;6.18;2.85;;;;;;;3.98;86.01;96596.47;2086525;28;20718;-63
2023/11/26 10:44:56;;;;;;;6.53;2.80;;;;;;;3.86;86.60;96594.97;2089944;28;20840;-63
2023/11/26 10:45:59;;;;;;;10.18;2.97;;;;;;;3.78;86.14;96585.66;2090229;28;20653;-63
2023/11/26 10:47:05;;;;;;;7.10;2.80;;;;;;;4.27;86.44;96574.38;2090077;28;20201;-64
2023/11/26 10:48:10;;;;;;;6.95;2.70;;;;;;;4.51;85.69;96603.19;2096753;28;20666;-64
2023/11/26 10:49:38;;;;;;;7.50;2.10;;;;;;;4.04;85.14;96582.59;2094200;28;20203;-62
2023/11/26 10:50:42;;;;;;;8.73;2.28;;;;;;;3.88;85.22;96602.69;2090713;28;20592;-63
2023/11/26 10:52:15;;;;;;;7.60;2.83;;;;;;;3.65;86.56;96603.13;2086558;28;20207;-62
2023/11/26 10:53:27;;;;;;;8.05;2.65;;;;;;;3.55;87.31;96605.00;2087973;28;20203;-62
2023/11/26 10:54:42;;;;;;;6.18;2.70;;;;;;;3.21;87.33;96583.22;2087972;28;20215;-63
2023/11/26 10:55:57;;;;;;;6.93;2.90;;;;;;;3.30;89.04;96602.88;2089682;28;20281;-64
2023/11/26 10:57:09;;;;;;;11.95;3.30;;;;;;;3.09;88.89;96581.66;2086185;28;20200;-64
2023/11/26 10:58:19;;;;;;;5.85;2.22;;;;;;;3.31;88.37;96604.53;2089565;28;20559;-64
2023/11/26 10:59:21;;;;;;;7.90;2.58;;;;;;;3.40;87.76;96596.66;2089611;28;20192;-63
2023/11/26 11:00:28;;;;;;;5.43;2.42;;;;;;;3.85;86.71;96607.94;2086224;28;20232;-64
2023/11/26 11:01:34;;;;;;;5.15;2.28;;;;;;;4.71;85.18;96608.78;2089136;28;20559;-64
2023/11/26 11:02:36;;;;;;;6.60;2.25;;;;;;;4.60;83.49;96600.41;2089183;28;20284;-64
2023/11/26 11:03:37;;;;;;;5.07;2.00;;;;;;;4.51;83.65;96600.59;2086477;28;20196;-64
2023/11/26 11:04:44;;;;;;;8.10;2.90;;;;;;;4.19;83.90;96610.72;2086450;28;20197;-63
2023/11/26 11:05:48;;;;;;;7.10;2.47;;;;;;;4.09;86.06;96598.88;2098645;28;20226;-63
2023/11/26 11:06:49;;;;;;;24.02;10.48;;;;;;;4.07;85.90;96610.94;2093346;28;20311;-63
2023/11/26 11:07:51;;;;;;;27.08;13.55;;;;;;;4.01;87.07;96568.00;2087022;28;20657;-61
2023/11/26 11:08:53;;;;;;;26.65;13.27;;;;;;;4.41;87.64;96605.09;2089493;28;20200;-62
2023/11/26 11:10:07;;;;;;;16.45;6.40;;;;;;;4.24;87.14;96595.97;2088938;28;20248;-64
2023/11/26 11:11:36;;;;;;;3.55;1.70;;;;;;;3.92;87.01;96604.34;2091857;28;20833;-64
2023/11/26 11:12:50;;;;;;;7.13;2.30;;;;;;;3.78;86.54;96601.16;2085402;28;20670;-63
2023/11/26 11:13:53;;;;;;;5.72;2.33;;;;;;;3.69;87.18;96604.78;2085152;28;20208;-64
2023/11/26 11:14:55;;;;;;;9.32;2.88;;;;;;;3.63;87.68;96607.47;2083637;28;20331;-64
2023/11/26 11:15:57;;;;;;;35.17;6.55;;;;;;;3.73;88.45;96604.69;2085053;28;20192;-64
2023/11/26 11:16:59;;;;;;;19.63;4.38;;;;;;;3.75;87.38;96602.09;2084937;28;20990;-64
2023/11/26 11:18:33;;;;;;;14.05;3.45;;;;;;;3.94;89.40;96607.75;2084536;28;20636;-64
2023/11/26 11:19:52;;;;;;;14.38;3.00;;;;;;;3.87;87.60;96599.28;2083960;28;20207;-64
2023/11/26 11:21:10;;;;;;;11.88;2.45;;;;;;;3.74;87.86;96603.78;2082685;28;20243;-64
2023/11/26 11:22:11;;;;;;;9.43;2.33;;;;;;;3.73;88.62;96607.28;2084393;28;20728;-64
2023/11/26 11:23:32;;;;;;;8.38;2.88;;;;;;;3.79;88.85;96579.63;2079227;28;20193;-64
2023/11/26 11:24:34;;;;;;;5.70;2.90;;;;;;;3.89;88.87;96604.41;2086119;28;20200;-64
2023/11/26 11:25:35;;;;;;;14.25;2.85;;;;;;;3.91;88.60;96597.47;2083006;28;20336;-64
2023/11/26 11:26:46;;;;;;;7.55;2.50;;;;;;;3.99;88.23;96597.34;2084200;28;20197;-64
2023/11/26 11:27:59;;;;;;;13.63;2.75;;;;;;;3.98;87.42;96598.22;2086117;28;20207;-64
2023/11/26 11:29:04;;;;;;;5.05;2.40;;;;;;;3.85;88.06;96600.19;2090504;28;20196;-64
2023/11/26 11:30:31;;;;;;;4.90;1.83;;;;;;;3.63;87.96;96598.00;2082042;28;20235;-64
2023/11/26 11:31:51;;;;;;;6.55;2.15;;;;;;;3.65;88.08;96600.53;2082056;28;20208;-64
2023/11/26 11:33:13;;;;;;;7.97;2.42;;;;;;;3.59;88.86;96599.78;2084299;28;20618;-66
2023/11/26 11:34:14;;;;;;;11.77;2.40;;;;;;;3.67;89.62;96601.34;2081315;28;20620;-66
2023/11/26 11:35:40;;;;;;;5.57;2.17;;;;;;;3.56;89.03;96570.56;2080369;28;20279;-66
2023/11/26 11:36:47;;;;;;;8.82;2.10;;;;;;;3.55;88.22;96589.53;2087309;28;20783;-66
2023/11/26 11:38:05;;;;;;;21.15;9.40;;;;;;;3.49;88.68;96587.91;2080149;28;20302;-66
2023/11/26 11:39:14;;;;;;;10.40;1.98;;;;;;;3.46;88.14;96587.09;2085283;28;20210;-66
2023/11/26 11:40:54;;;;;;;9.75;2.42;;;;;;;3.46;88.95;96595.69;2082453;28;20256;-66
2023/11/26 11:42:04;;;;;;;7.57;2.10;;;;;;;3.62;88.44;96592.84;2083563;28;20419;-61
2023/11/26 11:43:15;;;;;;;5.97;2.15;;;;;;;3.70;87.27;96598.72;2082884;28;20197;-64
2023/11/26 11:44:25;;;;;;;7.10;2.80;;;;;;;4.14;87.25;96588.41;2080335;28;20216;-64
2023/11/26 11:45:28;;;;;;;7.00;2.20;;;;;;;4.18;85.73;96588.31;2081027;28;20216;-64
2023/11/26 11:46:43;;;;;;;6.65;1.83;;;;;;;4.32;84.72;96590.63;2085255;28;20201;-64
2023/11/26 11:47:47;;;;;;;4.93;2.03;;;;;;;4.55;83.52;96592.72;2080541;28;20664;-64
2023/11/26 11:48:51;;;;;;;12.65;4.05;;;;;;;4.87;83.08;96596.31;2085465;28;20752;-64
2023/11/26 11:49:53;;;;;;;4.75;2.10;;;;;;;5.30;80.94;96598.81;2082958;28;20253;-64
2023/11/26 11:50:54;;;;;;;4.88;2.10;;;;;;;5.73;80.75;96593.38;2083165;28;20212;-65
2023/11/26 11:51:55;;;;;;;5.10;2.15;;;;;;;6.90;77.87;96588.38;2084813;28;20197;-67
2023/11/26 11:52:57;;;;;;;6.15;2.00;;;;;;;7.17;74.88;96572.84;2084669;28;20208;-67
2023/11/26 11:54:19;;;;;;;4.88;1.50;;;;;;;7.44;72.92;96580.63;2076664;28;20621;-67
2023/11/26 11:55:43;;;;;;;8.75;2.33;;;;;;;7.79;72.06;96584.63;2077293;28;20224;-67
2023/11/26 11:56:46;;;;;;;5.90;1.75;;;;;;;6.53;73.14;96589.50;2082809;28;20204;-67
2023/11/26 11:57:48;;;;;;;5.97;1.52;;;;;;;6.19;75.83;96582.69;2085077;28;20200;-64
2023/11/26 11:58:50;;;;;;;7.45;2.05;;;;;;;5.30;75.92;96575.50;2084555;28;20291;-64
2023/11/26 11:59:55;;;;;;;10.25;3.50;;;;;;;5.22;80.21;96580.88;2083874;28;20286;-62
2023/11/26 12:00:57;;;;;;;13.57;5.18;;;;;;;5.10;80.41;96586.34;2088650;28;20235;-63
2023/11/26 12:02:00;;;;;;;7.60;2.05;;;;;;;4.79;80.13;96581.88;2087853;28;20582;-63
2023/11/26 12:03:01;;;;;;;5.63;2.28;;;;;;;4.48;80.14;96574.78;2084524;28;20258;-64
2023/11/26 12:04:03;;;;;;;7.63;1.95;;;;;;;5.01;79.66;96575.31;2084317;28;20200;-63
2023/11/26 12:05:24;;;;;;;4.80;2.22;;;;;;;4.81;79.54;96585.28;2080779;28;20788;-63
2023/11/26 12:06:32;;;;;;;6.43;2.10;;;;;;;4.83;77.80;96571.41;2080340;28;20232;-63
2023/11/26 12:07:35;;;;;;;10.43;2.53;;;;;;;5.26;78.48;96584.22;2081530;28;20201;-64
2023/11/26 12:08:36;;;;;;;8.50;1.60;;;;;;;5.15;79.23;96580.16;2080165;28;20291;-64
2023/11/26 12:09:39;;;;;;;6.40;1.48;;;;;;;5.01;78.68;96577.91;2081041;28;20197;-64
2023/11/26 12:10:41;;;;;;;7.22;1.85;;;;;;;5.24;78.35;96576.50;2081537;28;20243;-63
2023/11/26 12:11:49;;;;;;;8.40;1.70;;;;;;;5.62;76.04;96577.25;2082249;28;20663;-63
2023/11/26 12:13:07;;;;;;;10.63;1.52;;;;;;;5.26;77.91;96564.38;2084495;28;20204;-64
2023/11/26 12:14:08;;;;;;;9.73;1.90;;;;;;;5.18;77.65;96572.34;2085829;28;20204;-63
2023/11/26 12:15:10;;;;;;;4.97;2.00;;;;;;;5.19;77.97;96568.84;2084723;28;20192;-65
2023/11/26 12:16:13;;;;;;;9.40;2.30;;;;;;;5.23;78.39;96569.59;2085104;28;20197;-64
2023/11/26 12:17:16;;;;;;;7.95;1.50;;;;;;;5.55;75.61;96567.97;2085292;28;20555;-64
2023/11/26 12:18:17;;;;;;;5.72;2.03;;;;;;;6.74;73.34;96562.03;2083861;28;20273;-64
2023/11/26 12:19:19;;;;;;;9.40;1.80;;;;;;;6.26;73.43;96565.19;2084391;28;20618;-64
2023/11/26 12:20:22;;;;;;;6.63;2.25;;;;;;;5.45;75.32;96569.94;2082252;28;20271;-64
2023/11/26 12:21:24;;;;;;;8.23;2.17;;;;;;;4.97;75.33;96563.34;2083387;28;20209;-64
2023/11/26 12:22:26;;;;;;;9.07;2.88;;;;;;;4.96;76.07;96566.81;2086073;28;20234;-64
2023/11/26 12:23:34;;;;;;;6.40;1.98;;;;;;;5.21;75.30;96564.47;2082811;28;20894;-64
2023/11/26 12:24:38;;;;;;;14.15;1.70;;;;;;;5.29;74.98;96566.88;2082459;28;20200;-64
2023/11/26 12:25:52;;;;;;;5.70;1.45;;;;;;;4.49;76.67;96550.63;2079112;28;20228;-64
2023/11/26 12:26:53;;;;;;;5.05;1.30;;;;;;;4.59;78.17;96565.06;2082586;28;20269;-64
2023/11/26 12:28:02;;;;;;;3.85;1.83;;;;;;;4.72;79.21;96568.22;2084634;28;20206;-64
2023/11/26 12:29:04;;;;;;;6.40;2.00;;;;;;;4.70;78.33;96567.44;2083096;28;20227;-64
2023/11/26 12:30:11;;;;;;;9.30;2.20;;;;;;;4.81;77.85;96567.16;2079768;28;20193;-64
2023/11/26 12:31:14;;;;;;;11.88;2.25;;;;;;;4.80;78.91;96568.91;2081853;28;20284;-64
2023/11/26 12:32:17;;;;;;;6.30;2.22;;;;;;;4.70;77.96;96564.84;2083612;28;20231;-64
2023/11/26 12:33:18;;;;;;;6.65;2.05;;;;;;;4.62;78.19;96561.56;2083898;28;20189;-64
2023/11/26 12:34:20;;;;;;;6.03;2.10;;;;;;;4.49;78.19;96556.66;2079987;28;20194;-64
2023/11/26 12:35:23;;;;;;;9.38;2.25;;;;;;;4.37;79.28;96556.94;2082004;28;20596;-64
2023/11/26 12:36:24;;;;;;;5.10;2.08;;;;;;;4.48;79.25;96562.72;2084149;28;20203;-64
2023/11/26 12:37:26;;;;;;;9.45;2.20;;;;;;;4.44;80.57;96552.47;2084241;28;20192;-64
2023/11/26 12:38:28;;;;;;;7.45;2.05;;;;;;;4.33;79.07;96557.84;2085052;28;20204;-65
2023/11/26 12:39:31;;;;;;;17.60;8.88;;;;;;;4.35;79.80;96561.28;2083896;28;20197;-63
2023/11/26 12:40:33;;;;;;;25.33;11.50;;;;;;;4.16;79.61;96550.47;2081981;28;20723;-64
2023/11/26 12:41:42;;;;;;;11.82;2.80;;;;;;;4.18;79.94;96553.88;2079858;28;20212;-64
2023/11/26 12:42:44;;;;;;;6.95;2.00;;;;;;;4.10;81.04;96556.59;2081664;28;20204;-64
2023/11/26 12:43:45;;;;;;;9.00;2.33;;;;;;;4.12;81.02;96554.00;2084853;28;20227;-64
2023/11/26 12:44:47;;;;;;;9.10;2.33;;;;;;;4.16;81.43;96553.06;2081995;28;20197;-65
2023/11/26 12:45:49;;;;;;;9.88;2.67;;;;;;;4.20;80.66;96552.09;2079294;28;20966;-64
2023/11/26 12:46:51;;;;;;;5.93;1.65;;;;;;;4.39;80.11;96547.38;2083587;28;20193;-64
2023/11/26 12:47:54;;;;;;;7.65;1.98;;;;;;;4.31;80.12;96559.66;2084103;28;20201;-64
2023/11/26 12:48:57;;;;;;;9.40;2.08;;;;;;;4.24;80.81;96536.50;2084196;28;20196;-65
2023/11/26 12:50:02;;;;;;;6.70;2.10;;;;;;;4.11;80.30;96522.13;2082912;28;20902;-65
2023/11/26 12:51:04;;;;;;;11.70;2.90;;;;;;;4.28;81.18;96555.41;2083871;28;20209;-64
2023/11/26 12:52:09;;;;;;;9.00;2.92;;;;;;;4.11;81.14;96555.72;2083921;28;20343;-64
2023/11/26 12:53:11;;;;;;;6.78;2.72;;;;;;;4.03;81.64;96548.13;2083884;28;20224;-65
2023/11/26 12:54:13;;;;;;;9.30;2.65;;;;;;;3.92;81.86;96550.06;2083566;28;20212;-64
2023/11/26 12:55:15;;;;;;;8.82;2.10;;;;;;;3.91;81.04;96561.28;2083574;28;20228;-64
2023/11/26 12:56:22;;;;;;;9.35;2.10;;;;;;;3.82;82.35;96558.91;2084740;28;20225;-64
2023/11/26 12:57:23;;;;;;;7.57;2.08;;;;;;;3.92;83.10;96557.81;2079808;28;20300;-64
2023/11/26 12:58:28;;;;;;;6.03;2.25;;;;;;;3.82;82.72;96549.44;2082353;28;20204;-64
2023/11/26 12:59:48;;;;;;;4.03;1.85;;;;;;;3.65;82.52;96559.22;2082041;28;20192;-64
2023/11/26 13:00:53;;;;;;;5.35;2.28;;;;;;;3.52;83.63;96558.59;2080629;28;20631;-64
2023/11/26 13:01:55;;;;;;;10.50;1.77;;;;;;;3.41;83.19;96548.44;2082520;28;20799;-64
2023/11/26 13:03:05;;;;;;;8.25;1.85;;;;;;;3.34;83.23;96549.44;2083383;28;20312;-65
2023/11/26 13:04:07;;;;;;;4.25;1.60;;;;;;;3.30;84.14;96524.56;2079885;28;20197;-65
2023/11/26 13:05:29;;;;;;;9.77;2.63;;;;;;;3.51;84.09;96537.06;2079099;28;20205;-64
2023/11/26 13:06:32;;;;;;;3.50;1.63;;;;;;;3.54;84.02;96537.03;2081880;28;20228;-64
2023/11/26 13:07:38;;;;;;;7.53;2.20;;;;;;;3.68;83.73;96551.41;2089142;28;20630;-64
2023/11/26 13:08:42;;;;;;;6.75;2.10;;;;;;;3.56;84.15;96545.59;2089307;28;20192;-64
2023/11/26 13:09:50;;;;;;;4.65;1.52;;;;;;;3.57;84.21;96549.88;2083918;28;20292;-64
2023/11/26 13:10:56;;;;;;;10.05;2.40;;;;;;;3.62;85.47;96549.81;2082961;28;20808;-64
2023/11/26 13:12:01;;;;;;;7.28;1.88;;;;;;;3.68;84.66;96552.28;2083754;28;20207;-65
2023/11/26 13:13:03;;;;;;;10.82;2.20;;;;;;;3.49;84.05;96538.84;2083205;28;20200;-64
2023/11/26 13:14:05;;;;;;;4.70;2.20;;;;;;;3.72;83.79;96532.38;2083105;28;20204;-64
2023/11/26 13:15:07;;;;;;;5.65;1.45;;;;;;;3.68;83.29;96539.38;2084203;28;20197;-64
2023/11/26 13:16:10;;;;;;;10.88;2.38;;;;;;;3.71;84.22;96531.53;2081120;28;20254;-64
2023/11/26 13:17:13;;;;;;;6.30;2.33;;;;;;;3.58;84.52;96512.84;2081469;28;20193;-65
2023/11/26 13:18:18;;;;;;;6.35;1.85;;;;;;;3.64;83.90;96534.28;2084599;28;20297;-64
2023/11/26 13:19:19;;;;;;;6.95;2.50;;;;;;;3.57;83.69;96534.38;2083657;28;20669;-64
2023/11/26 13:20:22;;;;;;;6.78;2.17;;;;;;;3.59;84.45;96534.34;2083421;28;20220;-63
2023/11/26 13:21:26;;;;;;;8.60;2.63;;;;;;;3.49;85.32;96536.28;2082319;28;20707;-62
2023/11/26 13:22:28;;;;;;;5.07;2.25;;;;;;;3.50;85.52;96532.78;2082742;28;20201;-62
2023/11/26 13:23:30;;;;;;;4.82;2.05;;;;;;;3.42;84.85;96538.09;2082013;28;20291;-62
2023/11/26 13:24:31;;;;;;;8.57;2.88;;;;;;;3.52;85.77;96538.78;2082124;28;20193;-61
2023/11/26 13:25:35;;;;;;;6.53;1.67;;;;;;;3.37;85.62;96532.16;2084668;28;20278;-62
2023/11/26 13:26:36;;;;;;;10.05;2.38;;;;;;;3.37;85.38;96533.91;2083639;28;20727;-62
2023/11/26 13:27:38;;;;;;;10.30;2.75;;;;;;;3.25;85.76;96537.53;2080134;28;20201;-62
2023/11/26 13:28:43;;;;;;;7.30;2.53;;;;;;;3.31;86.51;96534.00;2083997;28;20292;-62
2023/11/26 13:29:45;;;;;;;6.00;2.15;;;;;;;3.18;86.32;96523.06;2080265;28;20602;-62
2023/11/26 13:30:48;;;;;;;5.00;2.17;;;;;;;3.30;86.07;96542.63;2080109;28;20228;-62
2023/11/26 13:31:50;;;;;;;6.50;2.42;;;;;;;3.22;86.44;96533.28;2083618;28;20212;-64
2023/11/26 13:32:53;;;;;;;6.60;3.08;;;;;;;3.29;85.99;96522.84;2085188;28;20683;-65
2023/11/26 13:33:55;;;;;;;3.75;2.38;;;;;;;3.28;85.87;96529.75;2076162;28;20208;-65
2023/11/26 13:34:56;;;;;;;7.85;3.08;;;;;;;3.36;85.41;96538.19;2080789;28;20198;-65
2023/11/26 13:36:01;;;;;;;10.50;2.60;;;;;;;3.39;85.50;96526.97;2084058;28;20555;-65
2023/11/26 13:37:04;;;;;;;7.60;2.70;;;;;;;3.41;85.79;96527.81;2083308;28;20204;-65
2023/11/26 13:38:10;;;;;;;11.38;2.63;;;;;;;3.41;85.39;96515.72;2083186;28;20298;-65
2023/11/26 13:39:13;;;;;;;6.88;2.60;;;;;;;3.57;85.04;96538.72;2082916;28;20192;-65
2023/11/26 13:40:15;;;;;;;8.52;2.13;;;;;;;3.52;85.33;96527.63;2080803;28;20702;-65
2023/11/26 13:41:19;;;;;;;5.70;2.75;;;;;;;3.54;85.03;96531.88;2083578;28;20207;-65
2023/11/26 13:42:20;;;;;;;5.13;2.40;;;;;;;3.47;85.01;96532.03;2082345;28;20292;-65
2023/11/26 13:43:23;;;;;;;23.85;9.15;;;;;;;3.43;85.22;96534.63;2086947;28;20283;-65
2023/11/26 13:44:25;;;;;;;13.60;5.25;;;;;;;3.35;85.58;96526.19;2086352;28;20262;-65
2023/11/26 13:45:26;;;;;;;15.18;4.13;;;;;;;3.36;85.74;96529.63;2081522;28;20589;-65
2023/11/26 13:46:29;;;;;;;4.88;2.50;;;;;;;3.33;85.30;96527.09;2083828;28;20254;-65
2023/11/26 13:47:31;;;;;;;5.90;2.30;;;;;;;3.69;85.29;96533.28;2075588;28;20719;-65
2023/11/26 13:48:34;;;;;;;8.60;2.50;;;;;;;4.00;83.72;96537.88;2083433;28;20417;-65
2023/11/26 13:49:35;;;;;;;6.47;3.25;;;;;;;4.24;83.30;96536.50;2083393;28;20404;-66
2023/11/26 13:50:37;;;;;;;4.35;1.90;;;;;;;4.16;82.73;96534.97;2082160;28;20228;-65
2023/11/26 13:51:39;;;;;;;8.55;3.22;;;;;;;4.30;82.54;96538.09;2083122;28;20204;-65
2023/11/26 13:52:40;;;;;;;8.32;2.42;;;;;;;4.25;83.25;96533.03;2083486;28;20655;-65
2023/11/26 13:53:42;;;;;;;4.78;2.53;;;;;;;4.12;83.48;96523.00;2079755;28;20600;-65
2023/11/26 13:54:43;;;;;;;4.78;1.90;;;;;;;3.95;82.92;96531.94;2083315;28;20289;-66
2023/11/26 13:55:45;;;;;;;13.02;2.47;;;;;;;3.86;83.50;96539.84;2078780;28;20228;-65
2023/11/26 13:56:46;;;;;;;9.55;2.50;;;;;;;3.75;83.31;96538.34;2081417;28;20236;-65
2023/11/26 13:57:48;;;;;;;5.18;2.22;;;;;;;3.52;84.22;96532.78;2079648;28;20595;-65
2023/11/26 13:58:50;;;;;;;7.80;2.05;;;;;;;3.59;84.91;96542.09;2083657;28;20200;-65
2023/11/26 13:59:55;;;;;;;7.63;2.38;;;;;;;3.39;85.37;96519.22;2082758;28;20272;-66
2023/11/26 14:00:56;;;;;;;8.75;2.17;;;;;;;3.37;85.41;96542.50;2079307;28;20244;-65
2023/11/26 14:01:58;;;;;;;6.43;2.40;;;;;;;3.28;85.79;96545.25;2079539;28;20213;-64
2023/11/26 14:03:00;;;;;;;8.93;2.20;;;;;;;3.25;85.97;96535.81;2080441;28;20197;-64
2023/11/26 14:04:04;;;;;;;6.30;2.65;;;;;;;3.20;85.81;96539.34;2083463;28;20590;-65
2023/11/26 14:05:11;;;;;;;11.25;2.45;;;;;;;3.08;85.99;96528.34;2081183;28;20229;-64
2023/11/26 14:06:13;;;;;;;5.18;2.25;;;;;;;3.16;86.57;96537.69;2084824;28;20297;-63
2023/11/26 14:07:14;;;;;;;9.13;2.85;;;;;;;3.15;87.37;96521.38;2084125;28;20209;-64
2023/11/26 14:08:16;;;;;;;12.10;2.97;;;;;;;3.28;87.21;96537.50;2080089;28;20818;-64
2023/11/26 14:09:19;;;;;;;15.35;2.88;;;;;;;3.23;86.75;96537.56;2079626;28;20285;-64
2023/11/26 14:10:22;;;;;;;9.48;2.88;;;;;;;3.23;87.30;96541.88;2079397;28;20290;-64
2023/11/26 14:11:25;;;;;;;6.57;2.88;;;;;;;3.18;87.34;96529.06;2083359;28;20265;-62
2023/11/26 14:12:26;;;;;;;9.63;2.97;;;;;;;3.19;87.86;96541.09;2079457;28;20193;-62
2023/11/26 14:13:28;;;;;;;4.88;2.55;;;;;;;3.13;86.67;96537.75;2080704;28;20193;-62
2023/11/26 14:14:29;;;;;;;5.03;2.17;;;;;;;3.02;86.92;96537.94;2080924;28;20224;-61
2023/11/26 14:15:31;;;;;;;3.22;2.00;;;;;;;3.10;87.93;96536.09;2083930;28;20269;-61
2023/11/26 14:16:33;;;;;;;4.85;2.25;;;;;;;3.13;87.95;96536.03;2083003;28;20564;-62
2023/11/26 14:17:35;;;;;;;5.38;2.63;;;;;;;3.08;88.19;96528.34;2083323;28;20341;-62